Time;durP1;ratioP1;P1;durP2;ratioP2;P2;SDS_P1;SDS_P2;PMS_P1;PMS_P2;Temp;Humidity;BMP_temperature;BMP_pressure;BME280_temperature;BME280_humidity;BME280_pressure;Samples;Min_cycle;Max_cycle;Signal;HPM_P1;HPM_P2
2021/12/02 00:08:33;;;;;;;0.20;0.10;;;10.40;99.90;;;;;;20686700;28;20274;-84
2021/12/02 00:29:01;;;;;;;0.20;0.10;;;10.40;99.90;;;;;;20711755;28;20215;-80
2021/12/02 00:39:09;;;;;;;0.20;0.10;;;10.30;99.90;;;;;;20698122;28;20200;-80
2021/12/02 00:49:17;;;;;;;0.20;0.10;;;10.30;99.90;;;;;;20695350;28;20223;-82
2021/12/02 00:59:23;;;;;;;0.20;0.10;;;10.40;99.90;;;;;;20681599;28;20206;-81
2021/12/02 01:09:27;;;;;;;3.10;0.67;;;10.30;99.90;;;;;;20685722;28;20223;-81
2021/12/02 01:19:32;;;;;;;4.50;4.17;;;10.20;99.90;;;;;;20667869;28;20192;-78
2021/12/02 01:29:38;;;;;;;1.47;1.47;;;10.30;99.90;;;;;;20654996;28;20219;-77
2021/12/02 01:39:43;;;;;;;0.20;0.10;;;10.00;99.90;;;;;;20654075;28;20295;-73
2021/12/02 01:49:51;;;;;;;0.20;0.10;;;9.70;99.90;;;;;;20654794;28;20223;-74
2021/12/02 02:00:07;;;;;;;0.20;0.10;;;9.50;99.90;;;;;;20658046;28;20204;-74
2021/12/02 02:10:12;;;;;;;0.20;0.10;;;9.50;99.90;;;;;;20670033;28;20266;-77
2021/12/02 02:20:23;;;;;;;0.20;0.10;;;9.50;99.90;;;;;;20669013;28;20220;-77
2021/12/02 02:30:27;;;;;;;0.20;0.10;;;9.50;99.90;;;;;;20667917;28;20199;-74
2021/12/02 02:40:32;;;;;;;0.20;0.10;;;9.40;99.90;;;;;;20666410;28;20738;-75
2021/12/02 02:50:36;;;;;;;0.20;0.10;;;9.40;99.90;;;;;;20665095;28;20222;-76
2021/12/02 03:00:48;;;;;;;0.20;0.03;;;9.50;99.90;;;;;;20702110;22;20234;-76
2021/12/02 03:10:56;;;;;;;0.20;0.10;;;9.60;99.90;;;;;;20808163;28;20539;-74
2021/12/02 03:21:01;;;;;;;0.20;0.10;;;9.60;99.90;;;;;;20825974;28;20313;-74
2021/12/02 03:31:05;;;;;;;0.20;0.10;;;9.60;99.90;;;;;;20807447;28;20288;-74
2021/12/02 03:41:10;;;;;;;5.90;5.40;;;9.50;99.90;;;;;;20823207;28;20280;-73
2021/12/02 03:51:14;;;;;;;0.20;0.10;;;9.50;99.90;;;;;;20824034;28;20209;-73
2021/12/02 04:01:20;;;;;;;0.20;0.10;;;9.60;99.90;;;;;;20835141;22;20699;-76
2021/12/02 04:11:30;;;;;;;0.20;0.10;;;9.60;99.90;;;;;;20822053;28;20195;-76
2021/12/02 04:21:36;;;;;;;0.20;0.10;;;9.70;99.90;;;;;;20820487;28;20230;-76
2021/12/02 04:31:42;;;;;;;0.20;0.10;;;9.80;99.90;;;;;;20819011;28;20624;-76
2021/12/02 04:41:47;;;;;;;0.20;0.00;;;9.80;99.90;;;;;;20819471;28;20230;-77
2021/12/02 04:51:51;;;;;;;0.20;0.10;;;9.60;99.90;;;;;;20818830;28;20281;-77
2021/12/02 05:01:56;;;;;;;0.20;0.00;;;9.50;99.90;;;;;;20820113;28;20482;-80
2021/12/02 05:11:59;;;;;;;0.20;0.10;;;9.60;99.90;;;;;;20822326;28;20209;-80
2021/12/02 05:22:05;;;;;;;0.20;0.03;;;9.80;99.90;;;;;;20819753;28;20226;-79
2021/12/02 05:32:09;;;;;;;0.20;0.10;;;9.80;99.90;;;;;;20817536;28;20281;-80
2021/12/02 05:42:14;;;;;;;0.20;0.10;;;9.90;99.90;;;;;;20833335;28;20250;-79
2021/12/02 05:52:18;;;;;;;0.20;0.10;;;9.90;99.90;;;;;;20834351;28;20280;-81
2021/12/02 06:02:23;;;;;;;0.20;0.03;;;9.90;99.90;;;;;;20817584;28;20268;-79
2021/12/02 06:12:26;;;;;;;0.20;0.10;;;9.90;99.90;;;;;;20830195;28;20354;-79
2021/12/02 06:22:31;;;;;;;0.20;0.10;;;9.90;99.90;;;;;;20831393;28;20337;-77
2021/12/02 06:32:35;;;;;;;0.20;0.10;;;9.90;99.90;;;;;;20831341;28;20225;-78
2021/12/02 06:42:41;;;;;;;0.20;0.10;;;9.70;99.90;;;;;;20829684;28;20707;-79
2021/12/02 06:52:45;;;;;;;0.20;0.10;;;9.70;99.90;;;;;;20826979;28;20217;-79
2021/12/02 07:02:52;;;;;;;0.20;0.10;;;9.60;99.90;;;;;;20824996;28;20324;-79
2021/12/02 07:13:00;;;;;;;0.20;0.10;;;9.60;99.90;;;;;;20810533;28;20606;-78
2021/12/02 07:23:06;;;;;;;0.20;0.10;;;9.40;99.90;;;;;;20825929;28;20222;-82
2021/12/02 07:33:11;;;;;;;0.20;0.10;;;9.40;99.90;;;;;;20825667;28;20183;-79
2021/12/02 07:43:15;;;;;;;0.20;0.10;;;9.40;99.90;;;;;;20829555;28;20222;-76
2021/12/02 07:53:20;;;;;;;0.20;0.10;;;9.50;99.90;;;;;;20823958;28;20545;-77
2021/12/02 08:03:27;;;;;;;0.20;0.10;;;9.60;99.90;;;;;;20803887;28;20272;-77
2021/12/02 08:13:31;;;;;;;0.20;0.10;;;9.70;99.90;;;;;;20822016;28;20584;-77
2021/12/02 08:23:39;;;;;;;0.20;0.10;;;10.10;99.90;;;;;;20803231;28;20229;-73
2021/12/02 08:33:42;;;;;;;0.20;0.10;;;10.40;99.90;;;;;;20821015;28;20663;-77
2021/12/02 08:43:49;;;;;;;0.20;0.10;;;10.60;99.90;;;;;;20800474;28;20295;-77
2021/12/02 08:53:52;;;;;;;0.20;0.10;;;10.90;99.90;;;;;;20817597;28;20190;-77
2021/12/02 09:03:58;;;;;;;0.20;0.10;;;11.00;99.90;;;;;;20801289;28;20264;-78
2021/12/02 09:14:05;;;;;;;0.20;0.10;;;11.10;99.90;;;;;;20830972;28;20194;-78
2021/12/02 09:35:26;;;;;;;0.20;0.10;;;11.40;99.90;;;;;;20819952;28;20323;-78
2021/12/02 09:45:30;;;;;;;0.20;0.10;;;11.60;99.90;;;;;;22491619;22;20328;-71
2021/12/02 09:55:44;;;;;;;0.20;0.10;;;11.70;99.90;;;;;;20808675;28;20497;-75
2021/12/02 10:05:53;;;;;;;0.20;0.10;;;12.20;99.90;;;;;;20790155;28;20666;-69
2021/12/02 10:16:12;;;;;;;0.20;0.10;;;12.50;99.90;;;;;;20814146;28;20213;-70
2021/12/02 10:26:18;;;;;;;0.20;0.10;;;12.70;99.90;;;;;;20810472;28;20618;-69
2021/12/02 10:36:34;;;;;;;0.20;0.10;;;13.30;99.90;;;;;;20811577;28;20190;-68
2021/12/02 10:46:42;;;;;;;0.20;0.10;;;13.50;99.90;;;;;;20812056;28;20256;-69
2021/12/02 10:56:56;;;;;;;0.20;0.10;;;14.00;99.90;;;;;;20811003;28;20190;-69
2021/12/02 11:07:09;;;;;;;0.30;0.30;;;14.40;99.90;;;;;;20793102;28;20253;-67
2021/12/02 11:17:17;;;;;;;0.30;0.30;;;15.20;99.90;;;;;;20788331;28;20939;-67
2021/12/02 11:27:25;;;;;;;0.20;0.10;;;15.50;99.90;;;;;;20807565;28;20228;-67
2021/12/02 11:37:31;;;;;;;0.20;0.10;;;16.00;99.90;;;;;;20807126;28;20198;-68
2021/12/02 11:47:36;;;;;;;0.20;0.10;;;16.10;99.90;;;;;;20788817;28;20749;-69
2021/12/02 11:57:44;;;;;;;0.20;0.10;;;16.70;99.90;;;;;;20805738;28;20842;-70
2021/12/02 12:07:48;;;;;;;0.20;0.10;;;17.60;99.90;;;;;;20787587;28;20218;-70
2021/12/02 12:17:54;;;;;;;0.20;0.00;;;18.00;99.90;;;;;;20806338;28;20244;-69
2021/12/02 12:28:00;;;;;;;0.53;0.53;;;17.90;99.90;;;;;;20801454;28;20222;-70
2021/12/02 12:38:20;;;;;;;0.20;0.00;;;17.60;99.90;;;;;;20804307;28;20202;-71
2021/12/02 12:48:31;;;;;;;0.20;0.10;;;18.30;99.90;;;;;;20804390;28;20234;-71
2021/12/02 12:58:38;;;;;;;0.20;0.00;;;18.60;99.90;;;;;;20785633;28;20297;-71
2021/12/02 13:08:57;;;;;;;0.20;0.00;;;19.20;99.90;;;;;;20805018;28;20555;-72
2021/12/02 13:19:12;;;;;;;0.20;0.10;;;19.00;99.90;;;;;;20550263;28;20289;-72
2021/12/02 13:29:18;;;;;;;0.20;0.10;;;18.90;99.90;;;;;;20548284;28;20711;-73
2021/12/02 13:39:25;;;;;;;0.20;0.10;;;18.60;99.90;;;;;;20541423;28;20204;-69
2021/12/02 13:49:32;;;;;;;0.20;0.10;;;19.30;99.90;;;;;;20600126;28;20248;-69
2021/12/02 13:59:52;;;;;;;0.20;0.10;;;19.40;99.90;;;;;;20780417;28;20718;-70
2021/12/02 14:10:00;;;;;;;0.20;0.10;;;20.10;99.90;;;;;;20744952;28;20518;-67
2021/12/02 14:20:11;;;;;;;0.20;0.00;;;20.00;99.90;;;;;;20814971;28;20737;-68
2021/12/02 14:30:17;;;;;;;0.20;0.10;;;19.50;99.90;;;;;;20788397;28;20234;-68
2021/12/02 14:40:43;;;;;;;0.20;0.03;;;19.00;99.90;;;;;;20732670;28;20210;-68
2021/12/02 14:50:58;;;;;;;0.20;0.10;;;16.80;99.90;;;;;;20792338;28;20230;-73
2021/12/02 15:01:15;;;;;;;0.20;0.07;;;16.80;99.90;;;;;;20811942;28;20649;-71
2021/12/02 15:11:19;;;;;;;0.20;0.10;;;17.00;99.90;;;;;;20810787;28;20226;-69
2021/12/02 15:21:35;;;;;;;0.20;0.10;;;17.70;99.90;;;;;;20810400;28;20607;-70
2021/12/02 15:31:41;;;;;;;0.20;0.10;;;18.20;99.90;;;;;;20810440;28;20312;-72
2021/12/02 15:41:48;;;;;;;0.20;0.10;;;16.80;99.90;;;;;;20809084;28;20236;-69
2021/12/02 15:51:53;;;;;;;0.20;0.10;;;15.20;99.90;;;;;;20808231;28;20242;-67
2021/12/02 16:02:09;;;;;;;0.20;0.10;;;14.50;99.90;;;;;;20807321;28;20202;-69
2021/12/02 16:12:29;;;;;;;0.20;0.03;;;13.90;99.90;;;;;;20785843;28;20289;-71
2021/12/02 16:22:37;;;;;;;0.20;0.10;;;13.30;99.90;;;;;;20801086;28;20984;-69
2021/12/02 16:32:42;;;;;;;0.20;0.10;;;12.30;99.90;;;;;;20801732;28;20558;-71
2021/12/02 16:42:51;;;;;;;0.20;0.10;;;11.80;99.90;;;;;;20782995;28;20695;-71
2021/12/02 16:52:57;;;;;;;0.97;0.97;;;11.40;99.90;;;;;;20805662;28;20226;-70
2021/12/02 17:03:04;;;;;;;0.20;0.10;;;11.20;99.90;;;;;;20801390;28;20674;-70
2021/12/02 17:13:09;;;;;;;1.07;1.03;;;11.00;99.90;;;;;;20791029;28;20742;-69
2021/12/02 17:23:17;;;;;;;0.20;0.10;;;10.60;99.90;;;;;;20792069;28;20225;-69
2021/12/02 17:33:22;;;;;;;0.20;0.10;;;10.20;99.90;;;;;;20805650;28;20839;-72
2021/12/02 17:43:30;;;;;;;0.20;0.10;;;10.20;99.90;;;;;;20810534;28;21052;-69
2021/12/02 17:53:37;;;;;;;0.20;0.10;;;9.90;99.90;;;;;;20736764;28;1236676;-69
2021/12/02 18:03:43;;;;;;;0.20;0.10;;;9.90;99.90;;;;;;20825110;28;20249;-70
2021/12/02 18:13:46;;;;;;;1.90;1.90;;;10.10;99.90;;;;;;20808266;28;20195;-69
2021/12/02 18:23:52;;;;;;;0.20;0.10;;;10.20;99.90;;;;;;20825143;28;20313;-71
2021/12/02 18:33:56;;;;;;;0.50;0.50;;;10.00;99.90;;;;;;20824221;28;20204;-70
2021/12/02 18:44:02;;;;;;;0.20;0.10;;;10.50;99.90;;;;;;20806490;28;20225;-71
2021/12/02 18:54:07;;;;;;;0.20;0.10;;;10.90;99.90;;;;;;20825703;28;20320;-72
2021/12/02 19:04:12;;;;;;;0.20;0.10;;;11.30;99.90;;;;;;20824063;28;20272;-71
2021/12/02 19:35:01;;;;;;;0.20;0.10;;;10.90;99.90;;;;;;20819767;28;20230;-71
2021/12/02 19:45:26;;;;;;;0.20;0.10;;;10.40;99.90;;;;;;20823425;28;20430;-73
2021/12/02 19:55:30;;;;;;;0.20;0.10;;;9.60;99.90;;;;;;20817734;28;20217;-73
2021/12/02 20:05:35;;;;;;;0.20;0.10;;;8.60;99.90;;;;;;20816616;28;20249;-73
2021/12/02 20:15:51;;;;;;;0.20;0.10;;;8.40;99.90;;;;;;20797514;28;20193;-71
2021/12/02 20:25:56;;;;;;;0.20;0.10;;;9.90;99.90;;;;;;20783884;28;20691;-68
2021/12/02 20:36:00;;;;;;;0.20;0.10;;;10.10;99.90;;;;;;20810193;28;20205;-71
2021/12/02 20:46:10;;;;;;;0.20;0.10;;;10.40;99.90;;;;;;20812250;28;20232;-75
2021/12/02 20:56:16;;;;;;;0.20;0.10;;;10.30;99.90;;;;;;20821637;28;20288;-76
2021/12/02 21:16:47;;;;;;;0.20;0.10;;;9.70;99.90;;;;;;20795478;28;20186;-73
2021/12/02 21:26:52;;;;;;;0.20;0.10;;;9.70;99.90;;;;;;20813411;28;20218;-72
2021/12/02 21:36:58;;;;;;;0.20;0.10;;;9.10;99.90;;;;;;20811805;28;21029;-73
2021/12/02 21:47:03;;;;;;;0.20;0.10;;;9.10;99.90;;;;;;20794567;28;20285;-73
2021/12/02 21:57:08;;;;;;;0.20;0.10;;;8.90;99.90;;;;;;20794003;28;20186;-73
2021/12/02 22:07:13;;;;;;;0.20;0.10;;;8.90;99.90;;;;;;20794380;28;20593;-72
2021/12/02 22:17:17;;;;;;;0.20;0.10;;;8.80;99.90;;;;;;20810289;28;20252;-72
2021/12/02 22:27:22;;;;;;;0.20;0.10;;;8.80;99.90;;;;;;20824385;28;20682;-72
2021/12/02 22:37:28;;;;;;;0.20;0.10;;;8.40;99.90;;;;;;20805622;28;20237;-71
2021/12/02 22:47:33;;;;;;;0.20;0.10;;;7.80;99.90;;;;;;20824370;28;20222;-73
2021/12/02 22:57:37;;;;;;;0.20;0.10;;;7.20;99.90;;;;;;20825115;28;20285;-74
2021/12/02 23:07:44;;;;;;;0.20;0.10;;;6.90;99.90;;;;;;20804007;28;20225;-72
2021/12/02 23:17:48;;;;;;;0.20;0.10;;;6.70;99.90;;;;;;20822447;28;20290;-71
2021/12/02 23:27:58;;;;;;;0.20;0.10;;;6.50;99.90;;;;;;20821278;28;20808;-73
2021/12/02 23:38:02;;;;;;;0.20;0.10;;;6.40;99.90;;;;;;20818899;28;20210;-73
2021/12/02 23:48:07;;;;;;;0.20;0.10;;;6.50;99.90;;;;;;20819557;28;20321;-71
2021/12/02 23:58:11;;;;;;;2.20;1.60;;;6.60;99.90;;;;;;20819687;28;20213;-71
